sensor_id;sensor_type;location;lat;lon;timestamp;temperature;humidity
16827;DHT22;8530;49.540;8.576;2023-09-08T00:00:58;19.30;61.60
16827;DHT22;8530;49.540;8.576;2023-09-08T00:03:24;19.30;61.80
16827;DHT22;8530;49.540;8.576;2023-09-08T00:05:51;19.20;61.90
16827;DHT22;8530;49.540;8.576;2023-09-08T00:08:18;19.20;62.20
16827;DHT22;8530;49.540;8.576;2023-09-08T00:10:46;19.20;62.30
16827;DHT22;8530;49.540;8.576;2023-09-08T00:13:12;19.20;62.60
16827;DHT22;8530;49.540;8.576;2023-09-08T00:15:39;19.10;62.80
16827;DHT22;8530;49.540;8.576;2023-09-08T00:18:06;19.10;63.00
16827;DHT22;8530;49.540;8.576;2023-09-08T00:20:33;19.10;63.40
16827;DHT22;8530;49.540;8.576;2023-09-08T00:23:00;19.00;63.60
16827;DHT22;8530;49.540;8.576;2023-09-08T00:25:26;18.90;63.90
16827;DHT22;8530;49.540;8.576;2023-09-08T00:27:54;18.80;64.10
16827;DHT22;8530;49.540;8.576;2023-09-08T00:30:21;18.70;64.40
16827;DHT22;8530;49.540;8.576;2023-09-08T00:32:48;18.60;64.90
16827;DHT22;8530;49.540;8.576;2023-09-08T00:35:15;18.50;65.20
16827;DHT22;8530;49.540;8.576;2023-09-08T00:37:41;18.40;65.50
16827;DHT22;8530;49.540;8.576;2023-09-08T00:40:09;18.40;65.90
16827;DHT22;8530;49.540;8.576;2023-09-08T00:42:36;18.40;66.30
16827;DHT22;8530;49.540;8.576;2023-09-08T00:45:05;18.30;66.50
16827;DHT22;8530;49.540;8.576;2023-09-08T00:47:33;18.20;66.90
16827;DHT22;8530;49.540;8.576;2023-09-08T00:50:00;18.20;67.20
16827;DHT22;8530;49.540;8.576;2023-09-08T00:52:27;18.10;67.50
16827;DHT22;8530;49.540;8.576;2023-09-08T00:54:57;18.10;67.90
16827;DHT22;8530;49.540;8.576;2023-09-08T00:57:25;18.10;68.30
16827;DHT22;8530;49.540;8.576;2023-09-08T00:59:52;18.00;68.60
16827;DHT22;8530;49.540;8.576;2023-09-08T01:02:21;17.90;68.90
16827;DHT22;8530;49.540;8.576;2023-09-08T01:04:49;17.90;69.40
16827;DHT22;8530;49.540;8.576;2023-09-08T01:07:16;17.90;69.80
16827;DHT22;8530;49.540;8.576;2023-09-08T01:09:46;17.80;70.20
16827;DHT22;8530;49.540;8.576;2023-09-08T01:12:14;17.80;70.60
16827;DHT22;8530;49.540;8.576;2023-09-08T01:15:00;17.80;71.00
16827;DHT22;8530;49.540;8.576;2023-09-08T01:17:28;17.80;71.90
16827;DHT22;8530;49.540;8.576;2023-09-08T01:19:56;17.70;72.00
16827;DHT22;8530;49.540;8.576;2023-09-08T01:25:21;17.70;73.00
16827;DHT22;8530;49.540;8.576;2023-09-08T01:27:50;17.60;73.30
16827;DHT22;8530;49.540;8.576;2023-09-08T01:30:18;17.60;73.70
16827;DHT22;8530;49.540;8.576;2023-09-08T01:32:45;17.50;74.10
16827;DHT22;8530;49.540;8.576;2023-09-08T01:35:12;17.50;74.60
16827;DHT22;8530;49.540;8.576;2023-09-08T01:37:40;17.50;75.10
16827;DHT22;8530;49.540;8.576;2023-09-08T01:40:08;17.50;75.60
16827;DHT22;8530;49.540;8.576;2023-09-08T01:42:40;17.50;76.10
16827;DHT22;8530;49.540;8.576;2023-09-08T01:45:08;17.50;76.70
16827;DHT22;8530;49.540;8.576;2023-09-08T01:47:35;17.40;76.90
16827;DHT22;8530;49.540;8.576;2023-09-08T01:50:02;17.40;77.40
16827;DHT22;8530;49.540;8.576;2023-09-08T01:52:29;17.40;77.90
16827;DHT22;8530;49.540;8.576;2023-09-08T01:54:55;17.40;78.30
16827;DHT22;8530;49.540;8.576;2023-09-08T01:57:22;17.40;78.80
16827;DHT22;8530;49.540;8.576;2023-09-08T01:59:50;17.30;79.10
16827;DHT22;8530;49.540;8.576;2023-09-08T02:02:17;17.30;79.50
16827;DHT22;8530;49.540;8.576;2023-09-08T02:04:44;17.30;79.90
16827;DHT22;8530;49.540;8.576;2023-09-08T02:07:11;17.30;80.40
16827;DHT22;8530;49.540;8.576;2023-09-08T02:09:38;17.20;80.60
16827;DHT22;8530;49.540;8.576;2023-09-08T02:12:06;17.20;81.00
16827;DHT22;8530;49.540;8.576;2023-09-08T02:14:32;17.20;81.40
16827;DHT22;8530;49.540;8.576;2023-09-08T02:17:00;17.20;81.70
16827;DHT22;8530;49.540;8.576;2023-09-08T02:19:27;17.10;81.90
16827;DHT22;8530;49.540;8.576;2023-09-08T02:21:54;17.10;82.20
16827;DHT22;8530;49.540;8.576;2023-09-08T02:24:21;17.00;82.50
16827;DHT22;8530;49.540;8.576;2023-09-08T02:26:47;17.00;82.90
16827;DHT22;8530;49.540;8.576;2023-09-08T02:29:14;17.00;83.40
16827;DHT22;8530;49.540;8.576;2023-09-08T02:31:41;16.90;83.70
16827;DHT22;8530;49.540;8.576;2023-09-08T02:34:10;16.90;84.00
16827;DHT22;8530;49.540;8.576;2023-09-08T02:36:38;16.80;84.40
16827;DHT22;8530;49.540;8.576;2023-09-08T02:39:04;16.80;84.70
16827;DHT22;8530;49.540;8.576;2023-09-08T02:41:32;16.80;85.10
16827;DHT22;8530;49.540;8.576;2023-09-08T02:43:59;16.70;85.50
16827;DHT22;8530;49.540;8.576;2023-09-08T02:46:26;16.70;86.00
16827;DHT22;8530;49.540;8.576;2023-09-08T02:48:52;16.70;86.70
16827;DHT22;8530;49.540;8.576;2023-09-08T02:51:21;16.70;87.30
16827;DHT22;8530;49.540;8.576;2023-09-08T02:53:47;16.60;87.80
16827;DHT22;8530;49.540;8.576;2023-09-08T02:56:14;16.60;88.20
16827;DHT22;8530;49.540;8.576;2023-09-08T02:58:41;16.60;88.80
16827;DHT22;8530;49.540;8.576;2023-09-08T03:01:11;16.60;89.40
16827;DHT22;8530;49.540;8.576;2023-09-08T03:03:40;16.60;90.00
16827;DHT22;8530;49.540;8.576;2023-09-08T03:06:06;16.60;90.20
16827;DHT22;8530;49.540;8.576;2023-09-08T03:08:35;16.60;90.50
16827;DHT22;8530;49.540;8.576;2023-09-08T03:11:03;16.60;90.70
16827;DHT22;8530;49.540;8.576;2023-09-08T03:13:30;16.50;90.90
16827;DHT22;8530;49.540;8.576;2023-09-08T03:16:01;16.50;91.10
16827;DHT22;8530;49.540;8.576;2023-09-08T03:18:28;16.50;91.40
16827;DHT22;8530;49.540;8.576;2023-09-08T03:20:55;16.50;91.60
16827;DHT22;8530;49.540;8.576;2023-09-08T03:23:21;16.50;91.80
16827;DHT22;8530;49.540;8.576;2023-09-08T03:25:50;16.50;92.00
16827;DHT22;8530;49.540;8.576;2023-09-08T03:28:16;16.50;92.30
16827;DHT22;8530;49.540;8.576;2023-09-08T03:30:43;16.50;92.40
16827;DHT22;8530;49.540;8.576;2023-09-08T03:33:10;16.50;92.60
16827;DHT22;8530;49.540;8.576;2023-09-08T03:35:37;16.50;92.80
16827;DHT22;8530;49.540;8.576;2023-09-08T03:38:04;16.50;93.00
16827;DHT22;8530;49.540;8.576;2023-09-08T03:40:30;16.50;93.20
16827;DHT22;8530;49.540;8.576;2023-09-08T03:42:58;16.50;93.30
16827;DHT22;8530;49.540;8.576;2023-09-08T03:45:25;16.40;93.50
16827;DHT22;8530;49.540;8.576;2023-09-08T03:47:52;16.40;93.60
16827;DHT22;8530;49.540;8.576;2023-09-08T03:50:18;16.40;93.80
16827;DHT22;8530;49.540;8.576;2023-09-08T03:52:45;16.40;93.90
16827;DHT22;8530;49.540;8.576;2023-09-08T03:55:12;16.40;94.10
16827;DHT22;8530;49.540;8.576;2023-09-08T03:57:39;16.40;94.20
16827;DHT22;8530;49.540;8.576;2023-09-08T04:00:08;16.40;94.40
16827;DHT22;8530;49.540;8.576;2023-09-08T04:02:37;16.40;94.50
16827;DHT22;8530;49.540;8.576;2023-09-08T04:05:04;16.40;94.60
16827;DHT22;8530;49.540;8.576;2023-09-08T04:07:31;16.40;94.70
16827;DHT22;8530;49.540;8.576;2023-09-08T04:09:58;16.40;94.80
16827;DHT22;8530;49.540;8.576;2023-09-08T04:12:24;16.40;94.90
16827;DHT22;8530;49.540;8.576;2023-09-08T04:14:51;16.40;95.10
16827;DHT22;8530;49.540;8.576;2023-09-08T04:17:19;16.40;95.20
16827;DHT22;8530;49.540;8.576;2023-09-08T04:19:46;16.40;95.30
16827;DHT22;8530;49.540;8.576;2023-09-08T04:22:13;16.40;95.40
16827;DHT22;8530;49.540;8.576;2023-09-08T04:24:39;16.40;95.40
16827;DHT22;8530;49.540;8.576;2023-09-08T04:27:06;16.40;95.50
16827;DHT22;8530;49.540;8.576;2023-09-08T04:29:34;16.30;95.60
16827;DHT22;8530;49.540;8.576;2023-09-08T04:32:01;16.30;95.60
16827;DHT22;8530;49.540;8.576;2023-09-08T04:34:36;16.30;95.70
16827;DHT22;8530;49.540;8.576;2023-09-08T04:37:03;16.20;95.70
16827;DHT22;8530;49.540;8.576;2023-09-08T04:39:29;16.20;95.80
16827;DHT22;8530;49.540;8.576;2023-09-08T04:41:56;16.20;95.90
16827;DHT22;8530;49.540;8.576;2023-09-08T04:44:23;16.20;96.00
16827;DHT22;8530;49.540;8.576;2023-09-08T04:46:50;16.20;96.10
16827;DHT22;8530;49.540;8.576;2023-09-08T04:49:17;16.20;96.10
16827;DHT22;8530;49.540;8.576;2023-09-08T04:51:45;16.20;96.20
16827;DHT22;8530;49.540;8.576;2023-09-08T04:54:12;16.20;96.20
16827;DHT22;8530;49.540;8.576;2023-09-08T04:56:39;16.20;96.30
16827;DHT22;8530;49.540;8.576;2023-09-08T04:59:06;16.30;96.40
16827;DHT22;8530;49.540;8.576;2023-09-08T05:01:33;16.30;96.40
16827;DHT22;8530;49.540;8.576;2023-09-08T05:04:03;16.20;96.40
16827;DHT22;8530;49.540;8.576;2023-09-08T05:06:30;16.20;96.50
16827;DHT22;8530;49.540;8.576;2023-09-08T05:08:59;16.20;96.50
16827;DHT22;8530;49.540;8.576;2023-09-08T05:11:26;16.20;96.60
16827;DHT22;8530;49.540;8.576;2023-09-08T05:13:53;16.20;96.60
16827;DHT22;8530;49.540;8.576;2023-09-08T05:16:20;16.30;96.70
16827;DHT22;8530;49.540;8.576;2023-09-08T05:19:01;16.30;96.80
16827;DHT22;8530;49.540;8.576;2023-09-08T05:21:28;16.40;96.80
16827;DHT22;8530;49.540;8.576;2023-09-08T05:23:55;16.40;96.90
16827;DHT22;8530;49.540;8.576;2023-09-08T05:26:23;16.40;96.90
16827;DHT22;8530;49.540;8.576;2023-09-08T05:28:50;16.50;97.10
16827;DHT22;8530;49.540;8.576;2023-09-08T05:31:16;16.60;97.20
16827;DHT22;8530;49.540;8.576;2023-09-08T05:33:43;16.80;97.40
16827;DHT22;8530;49.540;8.576;2023-09-08T05:36:10;16.90;97.50
16827;DHT22;8530;49.540;8.576;2023-09-08T05:38:36;17.10;97.50
16827;DHT22;8530;49.540;8.576;2023-09-08T05:41:03;17.10;97.40
16827;DHT22;8530;49.540;8.576;2023-09-08T05:43:31;17.20;97.40
16827;DHT22;8530;49.540;8.576;2023-09-08T05:45:58;17.30;97.30
16827;DHT22;8530;49.540;8.576;2023-09-08T05:48:25;17.40;97.20
16827;DHT22;8530;49.540;8.576;2023-09-08T05:50:51;17.50;97.20
16827;DHT22;8530;49.540;8.576;2023-09-08T05:53:18;17.60;97.10
16827;DHT22;8530;49.540;8.576;2023-09-08T05:55:45;17.70;97.10
16827;DHT22;8530;49.540;8.576;2023-09-08T05:58:12;17.80;97.10
16827;DHT22;8530;49.540;8.576;2023-09-08T06:00:40;17.90;97.00
16827;DHT22;8530;49.540;8.576;2023-09-08T06:03:07;18.10;97.00
16827;DHT22;8530;49.540;8.576;2023-09-08T06:05:34;18.20;97.20
16827;DHT22;8530;49.540;8.576;2023-09-08T06:08:00;18.30;97.00
16827;DHT22;8530;49.540;8.576;2023-09-08T06:10:27;18.80;98.00
16827;DHT22;8530;49.540;8.576;2023-09-08T06:12:56;20.60;98.70
16827;DHT22;8530;49.540;8.576;2023-09-08T06:15:22;23.20;98.50
16827;DHT22;8530;49.540;8.576;2023-09-08T06:17:50;25.70;96.90
16827;DHT22;8530;49.540;8.576;2023-09-08T06:20:17;28.00;93.80
16827;DHT22;8530;49.540;8.576;2023-09-08T06:22:44;29.80;90.80
16827;DHT22;8530;49.540;8.576;2023-09-08T06:25:11;31.30;84.50
16827;DHT22;8530;49.540;8.576;2023-09-08T06:27:38;32.90;75.90
16827;DHT22;8530;49.540;8.576;2023-09-08T06:30:06;34.10;66.70
16827;DHT22;8530;49.540;8.576;2023-09-08T06:32:33;34.90;59.60
16827;DHT22;8530;49.540;8.576;2023-09-08T06:35:01;35.70;54.60
16827;DHT22;8530;49.540;8.576;2023-09-08T06:37:27;36.80;49.20
16827;DHT22;8530;49.540;8.576;2023-09-08T06:39:54;37.70;44.60
16827;DHT22;8530;49.540;8.576;2023-09-08T06:42:21;38.20;41.30
16827;DHT22;8530;49.540;8.576;2023-09-08T06:44:48;38.70;39.20
16827;DHT22;8530;49.540;8.576;2023-09-08T06:47:14;39.60;37.10
16827;DHT22;8530;49.540;8.576;2023-09-08T06:49:41;40.60;34.40
16827;DHT22;8530;49.540;8.576;2023-09-08T06:52:09;41.60;31.80
16827;DHT22;8530;49.540;8.576;2023-09-08T06:54:36;42.60;29.50
16827;DHT22;8530;49.540;8.576;2023-09-08T06:57:03;43.30;27.80
16827;DHT22;8530;49.540;8.576;2023-09-08T06:59:30;43.80;26.40
16827;DHT22;8530;49.540;8.576;2023-09-08T07:01:56;44.10;25.30
16827;DHT22;8530;49.540;8.576;2023-09-08T07:04:23;44.60;24.40
16827;DHT22;8530;49.540;8.576;2023-09-08T07:06:50;44.90;23.60
16827;DHT22;8530;49.540;8.576;2023-09-08T07:09:21;45.30;22.90
16827;DHT22;8530;49.540;8.576;2023-09-08T07:11:48;45.70;22.10
16827;DHT22;8530;49.540;8.576;2023-09-08T07:14:14;46.20;21.70
16827;DHT22;8530;49.540;8.576;2023-09-08T07:16:41;46.70;21.10
16827;DHT22;8530;49.540;8.576;2023-09-08T07:19:08;47.00;20.60
16827;DHT22;8530;49.540;8.576;2023-09-08T07:21:34;47.60;20.20
16827;DHT22;8530;49.540;8.576;2023-09-08T07:24:01;48.10;19.70
16827;DHT22;8530;49.540;8.576;2023-09-08T07:26:29;48.60;19.10
16827;DHT22;8530;49.540;8.576;2023-09-08T07:28:56;49.00;18.50
16827;DHT22;8530;49.540;8.576;2023-09-08T07:31:22;49.10;18.00
16827;DHT22;8530;49.540;8.576;2023-09-08T07:33:49;49.30;17.90
16827;DHT22;8530;49.540;8.576;2023-09-08T07:36:16;49.60;17.60
16827;DHT22;8530;49.540;8.576;2023-09-08T07:38:43;50.00;17.20
16827;DHT22;8530;49.540;8.576;2023-09-08T07:41:09;50.40;16.90
16827;DHT22;8530;49.540;8.576;2023-09-08T07:43:38;50.70;16.50
16827;DHT22;8530;49.540;8.576;2023-09-08T07:46:06;50.80;16.20
16827;DHT22;8530;49.540;8.576;2023-09-08T07:48:33;50.80;16.00
16827;DHT22;8530;49.540;8.576;2023-09-08T07:50:59;50.90;15.90
16827;DHT22;8530;49.540;8.576;2023-09-08T07:53:26;51.10;15.70
16827;DHT22;8530;49.540;8.576;2023-09-08T07:55:53;51.30;15.60
16827;DHT22;8530;49.540;8.576;2023-09-08T07:58:20;51.70;15.40
16827;DHT22;8530;49.540;8.576;2023-09-08T08:00:49;51.90;15.10
16827;DHT22;8530;49.540;8.576;2023-09-08T08:03:16;52.20;14.80
16827;DHT22;8530;49.540;8.576;2023-09-08T08:05:42;52.50;14.60
16827;DHT22;8530;49.540;8.576;2023-09-08T08:08:09;52.70;14.50
16827;DHT22;8530;49.540;8.576;2023-09-08T08:10:36;52.90;14.20
16827;DHT22;8530;49.540;8.576;2023-09-08T08:13:03;53.10;14.10
16827;DHT22;8530;49.540;8.576;2023-09-08T08:15:36;53.00;13.90
16827;DHT22;8530;49.540;8.576;2023-09-08T08:18:05;52.70;13.60
16827;DHT22;8530;49.540;8.576;2023-09-08T08:20:32;52.60;13.50
16827;DHT22;8530;49.540;8.576;2023-09-08T08:23:00;52.20;13.50
16827;DHT22;8530;49.540;8.576;2023-09-08T08:25:27;51.90;13.50
16827;DHT22;8530;49.540;8.576;2023-09-08T08:27:54;51.50;13.30
16827;DHT22;8530;49.540;8.576;2023-09-08T08:30:21;50.90;13.20
16827;DHT22;8530;49.540;8.576;2023-09-08T08:32:48;50.30;13.20
16827;DHT22;8530;49.540;8.576;2023-09-08T08:35:18;49.40;13.30
16827;DHT22;8530;49.540;8.576;2023-09-08T08:37:45;48.10;13.40
16827;DHT22;8530;49.540;8.576;2023-09-08T08:40:12;46.30;13.50
16827;DHT22;8530;49.540;8.576;2023-09-08T08:42:38;44.40;14.00
16827;DHT22;8530;49.540;8.576;2023-09-08T08:45:06;42.50;14.50
16827;DHT22;8530;49.540;8.576;2023-09-08T08:47:33;40.80;15.40
16827;DHT22;8530;49.540;8.576;2023-09-08T08:50:00;39.00;16.40
16827;DHT22;8530;49.540;8.576;2023-09-08T08:52:29;37.50;17.50
16827;DHT22;8530;49.540;8.576;2023-09-08T08:54:56;36.10;18.60
16827;DHT22;8530;49.540;8.576;2023-09-08T08:57:24;34.80;19.50
16827;DHT22;8530;49.540;8.576;2023-09-08T08:59:53;33.70;20.60
16827;DHT22;8530;49.540;8.576;2023-09-08T09:02:19;32.90;21.60
16827;DHT22;8530;49.540;8.576;2023-09-08T09:04:47;32.20;22.60
16827;DHT22;8530;49.540;8.576;2023-09-08T09:07:15;31.60;23.50
16827;DHT22;8530;49.540;8.576;2023-09-08T09:09:44;31.10;24.30
16827;DHT22;8530;49.540;8.576;2023-09-08T09:12:11;30.70;25.30
16827;DHT22;8530;49.540;8.576;2023-09-08T09:14:37;30.40;25.90
16827;DHT22;8530;49.540;8.576;2023-09-08T09:17:04;30.00;26.50
16827;DHT22;8530;49.540;8.576;2023-09-08T09:19:31;29.80;27.10
16827;DHT22;8530;49.540;8.576;2023-09-08T09:21:59;29.50;27.60
16827;DHT22;8530;49.540;8.576;2023-09-08T09:24:31;29.30;28.10
16827;DHT22;8530;49.540;8.576;2023-09-08T09:27:00;29.10;28.70
16827;DHT22;8530;49.540;8.576;2023-09-08T09:29:27;29.00;29.10
16827;DHT22;8530;49.540;8.576;2023-09-08T09:31:57;28.90;29.50
16827;DHT22;8530;49.540;8.576;2023-09-08T09:34:25;28.90;30.00
16827;DHT22;8530;49.540;8.576;2023-09-08T09:36:51;28.90;30.10
16827;DHT22;8530;49.540;8.576;2023-09-08T09:39:19;28.90;30.50
16827;DHT22;8530;49.540;8.576;2023-09-08T09:41:46;28.90;30.90
16827;DHT22;8530;49.540;8.576;2023-09-08T09:44:14;29.00;31.40
16827;DHT22;8530;49.540;8.576;2023-09-08T09:46:45;29.00;31.60
16827;DHT22;8530;49.540;8.576;2023-09-08T09:49:12;29.00;31.90
16827;DHT22;8530;49.540;8.576;2023-09-08T09:51:43;29.00;32.00
16827;DHT22;8530;49.540;8.576;2023-09-08T09:54:10;29.00;32.40
16827;DHT22;8530;49.540;8.576;2023-09-08T09:56:38;29.00;32.60
16827;DHT22;8530;49.540;8.576;2023-09-08T09:59:07;29.00;32.80
16827;DHT22;8530;49.540;8.576;2023-09-08T10:01:36;29.00;33.10
16827;DHT22;8530;49.540;8.576;2023-09-08T10:04:04;29.10;33.30
16827;DHT22;8530;49.540;8.576;2023-09-08T10:06:31;29.10;33.40
16827;DHT22;8530;49.540;8.576;2023-09-08T10:08:59;29.20;33.50
16827;DHT22;8530;49.540;8.576;2023-09-08T10:11:29;29.30;33.60
16827;DHT22;8530;49.540;8.576;2023-09-08T10:13:58;29.30;33.70
16827;DHT22;8530;49.540;8.576;2023-09-08T10:16:27;29.30;33.80
16827;DHT22;8530;49.540;8.576;2023-09-08T10:18:58;29.40;33.80
16827;DHT22;8530;49.540;8.576;2023-09-08T10:21:26;29.40;33.80
16827;DHT22;8530;49.540;8.576;2023-09-08T10:24:04;29.40;33.90
16827;DHT22;8530;49.540;8.576;2023-09-08T10:26:35;29.30;33.90
16827;DHT22;8530;49.540;8.576;2023-09-08T10:29:04;29.20;34.10
16827;DHT22;8530;49.540;8.576;2023-09-08T10:31:31;29.20;34.30
16827;DHT22;8530;49.540;8.576;2023-09-08T10:34:00;29.30;34.50
16827;DHT22;8530;49.540;8.576;2023-09-08T10:36:28;29.40;34.60
16827;DHT22;8530;49.540;8.576;2023-09-08T10:39:29;29.50;34.60
16827;DHT22;8530;49.540;8.576;2023-09-08T10:42:25;29.60;34.70
16827;DHT22;8530;49.540;8.576;2023-09-08T10:45:01;29.60;34.70
16827;DHT22;8530;49.540;8.576;2023-09-08T10:47:39;29.60;34.70
16827;DHT22;8530;49.540;8.576;2023-09-08T10:50:10;29.70;34.80
16827;DHT22;8530;49.540;8.576;2023-09-08T10:52:42;29.80;34.80
16827;DHT22;8530;49.540;8.576;2023-09-08T10:55:11;29.90;34.70
16827;DHT22;8530;49.540;8.576;2023-09-08T10:57:38;29.90;34.70
16827;DHT22;8530;49.540;8.576;2023-09-08T11:00:11;29.90;34.70
16827;DHT22;8530;49.540;8.576;2023-09-08T11:02:49;29.90;34.60
16827;DHT22;8530;49.540;8.576;2023-09-08T11:05:17;30.00;34.70
16827;DHT22;8530;49.540;8.576;2023-09-08T11:07:45;30.10;34.70
16827;DHT22;8530;49.540;8.576;2023-09-08T11:10:16;30.20;34.60
16827;DHT22;8530;49.540;8.576;2023-09-08T11:12:42;30.30;34.40
16827;DHT22;8530;49.540;8.576;2023-09-08T11:15:10;30.50;34.40
16827;DHT22;8530;49.540;8.576;2023-09-08T11:17:38;30.50;34.20
16827;DHT22;8530;49.540;8.576;2023-09-08T11:20:08;30.50;34.10
16827;DHT22;8530;49.540;8.576;2023-09-08T11:22:38;30.60;34.20
16827;DHT22;8530;49.540;8.576;2023-09-08T11:25:07;30.60;34.10
16827;DHT22;8530;49.540;8.576;2023-09-08T11:27:37;30.70;34.00
16827;DHT22;8530;49.540;8.576;2023-09-08T11:30:06;30.80;34.10
16827;DHT22;8530;49.540;8.576;2023-09-08T11:32:35;30.90;34.00
16827;DHT22;8530;49.540;8.576;2023-09-08T11:35:03;30.90;33.90
16827;DHT22;8530;49.540;8.576;2023-09-08T11:37:35;30.90;33.80
16827;DHT22;8530;49.540;8.576;2023-09-08T11:40:03;31.00;33.80
16827;DHT22;8530;49.540;8.576;2023-09-08T11:42:34;31.10;33.80
16827;DHT22;8530;49.540;8.576;2023-09-08T11:45:03;31.10;33.70
16827;DHT22;8530;49.540;8.576;2023-09-08T11:47:30;31.20;33.70
16827;DHT22;8530;49.540;8.576;2023-09-08T11:49:57;31.30;33.50
16827;DHT22;8530;49.540;8.576;2023-09-08T11:52:24;31.30;33.50
16827;DHT22;8530;49.540;8.576;2023-09-08T11:54:51;31.40;33.50
16827;DHT22;8530;49.540;8.576;2023-09-08T11:57:18;31.40;33.40
16827;DHT22;8530;49.540;8.576;2023-09-08T11:59:45;31.40;33.20
16827;DHT22;8530;49.540;8.576;2023-09-08T12:02:15;31.40;33.20
16827;DHT22;8530;49.540;8.576;2023-09-08T12:04:42;31.40;33.10
16827;DHT22;8530;49.540;8.576;2023-09-08T12:07:12;31.40;33.10
16827;DHT22;8530;49.540;8.576;2023-09-08T12:09:40;31.50;33.20
16827;DHT22;8530;49.540;8.576;2023-09-08T12:12:11;31.50;33.00
16827;DHT22;8530;49.540;8.576;2023-09-08T12:14:40;31.60;32.90
16827;DHT22;8530;49.540;8.576;2023-09-08T12:17:07;31.70;32.90
16827;DHT22;8530;49.540;8.576;2023-09-08T12:19:36;31.60;32.80
16827;DHT22;8530;49.540;8.576;2023-09-08T12:22:04;31.70;32.90
16827;DHT22;8530;49.540;8.576;2023-09-08T12:24:50;31.60;32.80
16827;DHT22;8530;49.540;8.576;2023-09-08T12:27:22;31.70;32.80
16827;DHT22;8530;49.540;8.576;2023-09-08T12:29:56;31.70;32.80
16827;DHT22;8530;49.540;8.576;2023-09-08T12:32:25;31.80;33.00
16827;DHT22;8530;49.540;8.576;2023-09-08T12:34:53;31.90;32.90
16827;DHT22;8530;49.540;8.576;2023-09-08T12:37:21;31.90;33.00
16827;DHT22;8530;49.540;8.576;2023-09-08T12:39:48;31.90;33.00
16827;DHT22;8530;49.540;8.576;2023-09-08T12:42:15;32.00;33.00
16827;DHT22;8530;49.540;8.576;2023-09-08T12:44:41;32.10;33.10
16827;DHT22;8530;49.540;8.576;2023-09-08T12:47:10;32.10;33.10
16827;DHT22;8530;49.540;8.576;2023-09-08T12:49:38;32.10;33.10
16827;DHT22;8530;49.540;8.576;2023-09-08T12:52:06;32.10;33.00
16827;DHT22;8530;49.540;8.576;2023-09-08T12:54:33;32.10;33.10
16827;DHT22;8530;49.540;8.576;2023-09-08T12:57:00;32.10;33.20
16827;DHT22;8530;49.540;8.576;2023-09-08T12:59:26;32.10;33.20
16827;DHT22;8530;49.540;8.576;2023-09-08T13:01:53;32.00;33.20
16827;DHT22;8530;49.540;8.576;2023-09-08T13:04:20;32.00;33.20
16827;DHT22;8530;49.540;8.576;2023-09-08T13:06:47;32.00;33.30
16827;DHT22;8530;49.540;8.576;2023-09-08T13:09:16;32.00;33.40
16827;DHT22;8530;49.540;8.576;2023-09-08T13:11:42;32.00;33.50
16827;DHT22;8530;49.540;8.576;2023-09-08T13:14:09;32.10;33.70
16827;DHT22;8530;49.540;8.576;2023-09-08T13:16:36;32.10;33.60
16827;DHT22;8530;49.540;8.576;2023-09-08T13:19:03;32.20;33.60
16827;DHT22;8530;49.540;8.576;2023-09-08T13:21:29;32.20;33.60
16827;DHT22;8530;49.540;8.576;2023-09-08T13:23:56;32.20;33.60
16827;DHT22;8530;49.540;8.576;2023-09-08T13:26:24;32.30;33.50
16827;DHT22;8530;49.540;8.576;2023-09-08T13:28:51;32.30;33.40
16827;DHT22;8530;49.540;8.576;2023-09-08T13:31:18;32.30;33.40
16827;DHT22;8530;49.540;8.576;2023-09-08T13:33:45;32.30;33.30
16827;DHT22;8530;49.540;8.576;2023-09-08T13:36:12;32.20;33.30
16827;DHT22;8530;49.540;8.576;2023-09-08T13:38:39;32.20;33.50
16827;DHT22;8530;49.540;8.576;2023-09-08T13:41:06;32.20;33.60
16827;DHT22;8530;49.540;8.576;2023-09-08T13:43:34;32.20;33.70
16827;DHT22;8530;49.540;8.576;2023-09-08T13:46:00;32.30;33.80
16827;DHT22;8530;49.540;8.576;2023-09-08T13:48:27;32.40;33.80
16827;DHT22;8530;49.540;8.576;2023-09-08T13:50:54;32.30;33.70
16827;DHT22;8530;49.540;8.576;2023-09-08T13:53:21;32.20;33.70
16827;DHT22;8530;49.540;8.576;2023-09-08T13:55:48;32.20;33.90
16827;DHT22;8530;49.540;8.576;2023-09-08T13:58:16;32.20;33.90
16827;DHT22;8530;49.540;8.576;2023-09-08T14:00:44;32.20;33.90
16827;DHT22;8530;49.540;8.576;2023-09-08T14:03:14;32.10;33.90
16827;DHT22;8530;49.540;8.576;2023-09-08T14:05:41;32.00;33.80
16827;DHT22;8530;49.540;8.576;2023-09-08T14:08:07;32.00;33.70
16827;DHT22;8530;49.540;8.576;2023-09-08T14:10:34;32.00;33.80
16827;DHT22;8530;49.540;8.576;2023-09-08T14:13:01;32.00;33.90
16827;DHT22;8530;49.540;8.576;2023-09-08T14:15:27;31.90;33.90
16827;DHT22;8530;49.540;8.576;2023-09-08T14:17:55;32.00;33.90
16827;DHT22;8530;49.540;8.576;2023-09-08T14:20:22;32.00;34.00
16827;DHT22;8530;49.540;8.576;2023-09-08T14:22:49;32.00;34.00
16827;DHT22;8530;49.540;8.576;2023-09-08T14:25:16;32.00;34.00
16827;DHT22;8530;49.540;8.576;2023-09-08T14:27:43;32.10;34.00
16827;DHT22;8530;49.540;8.576;2023-09-08T14:30:09;32.10;33.90
16827;DHT22;8530;49.540;8.576;2023-09-08T14:32:36;32.10;34.00
16827;DHT22;8530;49.540;8.576;2023-09-08T14:35:05;32.10;34.00
16827;DHT22;8530;49.540;8.576;2023-09-08T14:37:33;32.00;33.90
16827;DHT22;8530;49.540;8.576;2023-09-08T14:40:00;32.00;33.90
16827;DHT22;8530;49.540;8.576;2023-09-08T14:42:27;31.90;34.00
16827;DHT22;8530;49.540;8.576;2023-09-08T14:44:54;31.90;34.00
16827;DHT22;8530;49.540;8.576;2023-09-08T14:47:21;31.90;34.20
16827;DHT22;8530;49.540;8.576;2023-09-08T14:49:48;31.90;34.40
16827;DHT22;8530;49.540;8.576;2023-09-08T14:52:16;31.90;34.40
16827;DHT22;8530;49.540;8.576;2023-09-08T14:54:46;31.80;34.40
16827;DHT22;8530;49.540;8.576;2023-09-08T14:57:12;31.80;34.40
16827;DHT22;8530;49.540;8.576;2023-09-08T14:59:39;31.80;34.40
16827;DHT22;8530;49.540;8.576;2023-09-08T15:02:07;31.80;34.50
16827;DHT22;8530;49.540;8.576;2023-09-08T15:04:34;31.70;34.50
16827;DHT22;8530;49.540;8.576;2023-09-08T15:07:00;31.70;34.60
16827;DHT22;8530;49.540;8.576;2023-09-08T15:09:28;31.70;34.60
16827;DHT22;8530;49.540;8.576;2023-09-08T15:11:56;31.60;34.70
16827;DHT22;8530;49.540;8.576;2023-09-08T15:14:22;31.60;34.70
16827;DHT22;8530;49.540;8.576;2023-09-08T15:16:49;31.60;34.70
16827;DHT22;8530;49.540;8.576;2023-09-08T15:19:16;31.60;34.80
16827;DHT22;8530;49.540;8.576;2023-09-08T15:21:42;31.50;34.80
16827;DHT22;8530;49.540;8.576;2023-09-08T15:24:09;31.40;34.80
16827;DHT22;8530;49.540;8.576;2023-09-08T15:26:37;31.40;34.80
16827;DHT22;8530;49.540;8.576;2023-09-08T15:29:04;31.40;34.90
16827;DHT22;8530;49.540;8.576;2023-09-08T15:31:31;31.30;34.90
16827;DHT22;8530;49.540;8.576;2023-09-08T15:33:57;31.30;34.90
16827;DHT22;8530;49.540;8.576;2023-09-08T15:36:24;31.30;35.00
16827;DHT22;8530;49.540;8.576;2023-09-08T15:38:51;31.20;34.90
16827;DHT22;8530;49.540;8.576;2023-09-08T15:41:18;31.20;35.00
16827;DHT22;8530;49.540;8.576;2023-09-08T15:43:48;31.20;35.00
16827;DHT22;8530;49.540;8.576;2023-09-08T15:46:16;31.20;35.00
16827;DHT22;8530;49.540;8.576;2023-09-08T15:48:43;31.20;35.00
16827;DHT22;8530;49.540;8.576;2023-09-08T15:51:10;31.20;35.10